createdAt,value
2017-08-17T00:00:29.745Z,1012.38
2017-08-17T00:01:29.726Z,1012.34
2017-08-17T00:02:29.705Z,1012.29
2017-08-17T00:03:29.683Z,1012.35
2017-08-17T00:04:29.664Z,1012.3
2017-08-17T00:05:29.647Z,1012.3
2017-08-17T00:06:29.626Z,1012.3
2017-08-17T00:07:29.605Z,1012.25
2017-08-17T00:08:29.583Z,1012.25
2017-08-17T00:09:29.567Z,1012.22
2017-08-17T00:10:29.593Z,1012.25
2017-08-17T00:11:29.556Z,1012.22
2017-08-17T00:12:29.505Z,1012.18
2017-08-17T00:13:29.487Z,1012.17
2017-08-17T00:14:29.464Z,1012.11
2017-08-17T00:15:29.445Z,1012.12
2017-08-17T00:16:29.424Z,1012.13
2017-08-17T00:17:29.403Z,1012.13
2017-08-17T00:18:29.385Z,1012.11
2017-08-17T00:19:29.366Z,1012.06
2017-08-17T00:20:29.345Z,1012.04
2017-08-17T00:21:29.326Z,1012.02
2017-08-17T00:22:29.307Z,1012.06
2017-08-17T00:23:29.287Z,1012.03
2017-08-17T00:24:29.263Z,1012.02
2017-08-17T00:25:29.245Z,1011.99
2017-08-17T00:26:29.225Z,1011.98
2017-08-17T00:27:29.204Z,1012.02
2017-08-17T00:28:29.187Z,1011.96
2017-08-17T00:29:29.163Z,1011.98
2017-08-17T00:30:29.148Z,1012.01
2017-08-17T00:31:29.132Z,1012.01
2017-08-17T00:32:29.108Z,1012.05
2017-08-17T00:33:29.083Z,1012.04
2017-08-17T00:34:29.063Z,1012.03
2017-08-17T00:35:29.043Z,1012.05
2017-08-17T00:36:29.024Z,1012.06
2017-08-17T00:37:29.006Z,1012.05
2017-08-17T00:38:28.987Z,1012.04
2017-08-17T00:39:28.962Z,1012.05
2017-08-17T00:40:28.947Z,1012.01
2017-08-17T00:41:28.922Z,1012.02
2017-08-17T00:42:28.910Z,1011.97
2017-08-17T00:43:28.882Z,1011.99
2017-08-17T00:44:28.864Z,1011.97
2017-08-17T00:45:28.842Z,1011.97
2017-08-17T00:46:28.821Z,1011.93
2017-08-17T00:47:28.802Z,1011.9
2017-08-17T00:48:28.784Z,1011.89
2017-08-17T00:49:28.762Z,1011.89
2017-08-17T00:50:28.744Z,1011.9
2017-08-17T00:51:28.727Z,1011.87
2017-08-17T00:52:28.702Z,1011.87
2017-08-17T00:53:28.681Z,1011.88
2017-08-17T00:54:28.661Z,1011.86
2017-08-17T00:55:28.640Z,1011.89
2017-08-17T00:56:28.621Z,1011.87
2017-08-17T00:57:28.600Z,1011.85
2017-08-17T00:58:28.584Z,1011.83
2017-08-17T00:59:28.562Z,1011.79
2017-08-17T01:00:28.542Z,1011.78
2017-08-17T01:01:28.519Z,1011.73
2017-08-17T01:02:28.502Z,1011.76
2017-08-17T01:03:28.482Z,1011.68
2017-08-17T01:04:28.459Z,1011.68
2017-08-17T01:05:28.438Z,1011.65
2017-08-17T01:06:28.417Z,1011.73
2017-08-17T01:07:28.401Z,1011.69
2017-08-17T01:08:28.378Z,1011.75
2017-08-17T01:09:28.359Z,1011.77
2017-08-17T01:10:28.339Z,1011.67
2017-08-17T01:11:28.323Z,1011.69
2017-08-17T01:12:28.298Z,1011.67
2017-08-17T01:13:28.333Z,1011.68
2017-08-17T01:14:28.258Z,1011.62
2017-08-17T01:15:28.236Z,1011.63
2017-08-17T01:16:28.216Z,1011.6
2017-08-17T01:17:28.199Z,1011.63
2017-08-17T01:18:28.176Z,1011.61
2017-08-17T01:19:28.156Z,1011.69
2017-08-17T01:20:28.137Z,1011.65
2017-08-17T01:21:28.114Z,1011.66
2017-08-17T01:22:28.096Z,1011.67
2017-08-17T01:23:28.079Z,1011.74
2017-08-17T01:24:28.103Z,1011.69
2017-08-17T01:25:28.036Z,1011.67
2017-08-17T01:26:28.047Z,1011.63
2017-08-17T01:27:27.995Z,1011.59
2017-08-17T01:28:27.974Z,1011.59
2017-08-17T01:29:27.959Z,1011.57
2017-08-17T01:30:27.933Z,1011.59
2017-08-17T01:31:27.914Z,1011.59
2017-08-17T01:32:27.893Z,1011.53
2017-08-17T01:33:27.875Z,1011.56
2017-08-17T01:34:27.853Z,1011.52
2017-08-17T01:35:27.838Z,1011.61
2017-08-17T01:36:27.812Z,1011.61
2017-08-17T01:37:27.791Z,1011.62
2017-08-17T01:38:27.771Z,1011.64
2017-08-17T01:39:27.750Z,1011.63
2017-08-17T01:40:27.734Z,1011.6
2017-08-17T01:41:27.713Z,1011.58
2017-08-17T01:42:27.690Z,1011.6
2017-08-17T01:43:27.669Z,1011.59
2017-08-17T01:44:27.652Z,1011.57
2017-08-17T01:45:27.631Z,1011.57
2017-08-17T01:46:27.610Z,1011.58
2017-08-17T01:47:27.591Z,1011.56
2017-08-17T01:48:27.568Z,1011.53
2017-08-17T01:49:27.552Z,1011.57
2017-08-17T01:50:27.531Z,1011.51
2017-08-17T01:51:27.508Z,1011.53
2017-08-17T01:52:27.485Z,1011.54
2017-08-17T01:53:27.467Z,1011.49
2017-08-17T01:54:27.448Z,1011.47
2017-08-17T01:55:27.427Z,1011.46
2017-08-17T01:56:27.408Z,1011.43
2017-08-17T01:57:27.386Z,1011.48
2017-08-17T01:58:27.371Z,1011.44
2017-08-17T01:59:27.346Z,1011.43
2017-08-17T02:00:27.332Z,1011.46
2017-08-17T02:01:27.304Z,1011.46
2017-08-17T02:02:27.290Z,1011.38
2017-08-17T02:03:27.267Z,1011.32
2017-08-17T02:04:27.246Z,1011.38
2017-08-17T02:05:27.225Z,1011.31
2017-08-17T02:06:27.206Z,1011.37
2017-08-17T02:07:27.187Z,1011.31
2017-08-17T02:08:27.163Z,1011.29
2017-08-17T02:09:27.146Z,1011.32
2017-08-17T02:10:27.127Z,1011.31
2017-08-17T02:11:27.108Z,1011.3
2017-08-17T02:12:27.082Z,1011.28
2017-08-17T02:13:27.065Z,1011.28
2017-08-17T02:14:27.040Z,1011.29
2017-08-17T02:15:27.024Z,1011.28
2017-08-17T02:16:27.003Z,1011.28
2017-08-17T02:17:26.980Z,1011.26
2017-08-17T02:18:26.961Z,1011.29
2017-08-17T02:19:26.940Z,1011.37
2017-08-17T02:20:26.921Z,1011.34
2017-08-17T02:21:26.903Z,1011.36
2017-08-17T02:22:26.880Z,1011.3
2017-08-17T02:23:26.859Z,1011.35
2017-08-17T02:24:26.840Z,1011.3
2017-08-17T02:25:26.822Z,1011.31
2017-08-17T02:26:26.797Z,1011.3
2017-08-17T02:27:26.782Z,1011.29
2017-08-17T02:28:26.759Z,1011.31
2017-08-17T02:29:26.738Z,1011.28
2017-08-17T02:30:26.716Z,1011.26
2017-08-17T02:31:26.697Z,1011.31
2017-08-17T02:32:26.677Z,1011.29
2017-08-17T02:33:26.656Z,1011.2
2017-08-17T02:34:26.635Z,1011.23
2017-08-17T02:35:26.616Z,1011.17
2017-08-17T02:36:26.597Z,1011.16
2017-08-17T02:37:26.574Z,1011.16
2017-08-17T02:38:26.554Z,1011.13
2017-08-17T02:39:26.532Z,1011.13
2017-08-17T02:40:26.511Z,1011.14
2017-08-17T02:41:26.494Z,1011.13
2017-08-17T02:42:26.474Z,1011.16
2017-08-17T02:43:26.454Z,1011.2
2017-08-17T02:44:26.731Z,1011.15
2017-08-17T02:45:26.412Z,1011.15
2017-08-17T02:46:26.394Z,1011.11
2017-08-17T02:47:26.373Z,1011.18
2017-08-17T02:48:26.350Z,1011.16
2017-08-17T02:49:26.333Z,1011.18
2017-08-17T02:50:26.310Z,1011.17
2017-08-17T02:51:26.289Z,1011.13
2017-08-17T02:52:26.269Z,1011.1
2017-08-17T02:53:26.250Z,1011.14
2017-08-17T02:54:26.228Z,1011.1
2017-08-17T02:55:26.206Z,1011.18
2017-08-17T02:56:26.186Z,1011.09
2017-08-17T02:57:26.168Z,1011.11
2017-08-17T02:58:26.143Z,1011.13
2017-08-17T02:59:26.127Z,1011.07
2017-08-17T03:00:26.106Z,1011.09
2017-08-17T03:01:26.085Z,1011.08
2017-08-17T03:02:26.064Z,1011.09
2017-08-17T03:03:26.050Z,1011.09
2017-08-17T03:04:26.025Z,1011.08
2017-08-17T03:05:26.012Z,1011.11
2017-08-17T03:06:25.984Z,1011.14
2017-08-17T03:07:25.963Z,1011.13
2017-08-17T03:08:25.946Z,1011.15
2017-08-17T03:09:25.920Z,1011.14
2017-08-17T03:10:25.900Z,1011.18
2017-08-17T03:11:25.881Z,1011.18
2017-08-17T03:12:25.861Z,1011.2
2017-08-17T03:13:25.892Z,1011.23
2017-08-17T03:14:25.822Z,1011.21
2017-08-17T03:15:25.798Z,1011.24
2017-08-17T03:16:25.779Z,1011.16
2017-08-17T03:17:25.758Z,1011.13
2017-08-17T03:18:25.738Z,1011.16
2017-08-17T03:19:25.717Z,1011.13
2017-08-17T03:20:25.696Z,1011.12
2017-08-17T03:21:25.679Z,1011.17
2017-08-17T03:22:25.657Z,1011.1
2017-08-17T03:23:25.634Z,1011.13
2017-08-17T03:24:25.619Z,1011.17
2017-08-17T03:25:25.599Z,1011.14
2017-08-17T03:26:25.574Z,1011.12
2017-08-17T03:27:25.557Z,1011.15
2017-08-17T03:28:25.585Z,1011.14
2017-08-17T03:29:25.513Z,1011.15
2017-08-17T03:30:25.497Z,1011.14
2017-08-17T03:31:25.474Z,1011.14
2017-08-17T03:32:25.455Z,1011.18
2017-08-17T03:33:25.436Z,1011.15
2017-08-17T03:34:25.413Z,1011.19
2017-08-17T03:35:25.390Z,1011.18
2017-08-17T03:36:25.372Z,1011.13
2017-08-17T03:37:25.351Z,1011.14
2017-08-17T03:38:25.330Z,1011.12
2017-08-17T03:39:25.311Z,1011.12
2017-08-17T03:40:25.289Z,1011.1
2017-08-17T03:41:25.268Z,1011.12
2017-08-17T03:42:25.249Z,1011.1
2017-08-17T03:43:25.230Z,1011.1
2017-08-17T03:44:25.208Z,1011.13
2017-08-17T03:45:25.190Z,1011.07
2017-08-17T03:46:25.170Z,1011.09
2017-08-17T03:47:25.151Z,1011.07
2017-08-17T03:48:25.126Z,1011.06
2017-08-17T03:49:25.104Z,1011.06
2017-08-17T03:50:25.085Z,1011.07
2017-08-17T03:51:25.064Z,1011.01
2017-08-17T03:52:25.045Z,1011.02
2017-08-17T03:53:25.025Z,1011.06
2017-08-17T03:54:25.003Z,1011.07
2017-08-17T03:55:24.985Z,1011.08
2017-08-17T03:56:24.962Z,1011.09
2017-08-17T03:57:24.941Z,1011.07
2017-08-17T03:58:24.922Z,1011.06
2017-08-17T03:59:24.900Z,1011.05
2017-08-17T04:00:24.879Z,1011.04
2017-08-17T04:01:24.860Z,1010.97
2017-08-17T04:02:24.839Z,1011
2017-08-17T04:03:24.817Z,1010.99
2017-08-17T04:04:24.800Z,1010.97
2017-08-17T04:05:24.781Z,1011
2017-08-17T04:06:24.761Z,1011.04
2017-08-17T04:07:24.736Z,1010.98
2017-08-17T04:08:24.721Z,1010.97
2017-08-17T04:09:24.698Z,1010.98
2017-08-17T04:10:24.674Z,1010.98
2017-08-17T04:11:24.659Z,1010.96
2017-08-17T04:12:24.638Z,1010.99
2017-08-17T04:13:24.616Z,1010.96
2017-08-17T04:14:24.592Z,1011
2017-08-17T04:15:24.573Z,1010.95
2017-08-17T04:16:24.554Z,1010.99
2017-08-17T04:17:24.532Z,1010.96
2017-08-17T04:18:24.511Z,1010.95
2017-08-17T04:19:24.494Z,1011
2017-08-17T04:20:24.471Z,1010.94
2017-08-17T04:21:24.450Z,1010.98
2017-08-17T04:22:24.429Z,1010.95
2017-08-17T04:23:24.409Z,1010.92
2017-08-17T04:24:24.388Z,1010.95
2017-08-17T04:25:24.365Z,1010.92
2017-08-17T04:26:24.348Z,1010.99
2017-08-17T04:27:24.333Z,1010.99
2017-08-17T04:28:24.311Z,1011.01
2017-08-17T04:29:24.336Z,1011.04
2017-08-17T04:30:24.266Z,1011
2017-08-17T04:31:24.295Z,1011.02
2017-08-17T04:32:24.226Z,1010.92
2017-08-17T04:33:24.206Z,1010.87
2017-08-17T04:34:24.195Z,1010.86
2017-08-17T04:35:24.165Z,1010.87
2017-08-17T04:36:24.145Z,1010.88
2017-08-17T04:37:24.122Z,1010.86
2017-08-17T04:38:24.103Z,1010.92
2017-08-17T04:39:24.082Z,1010.88
2017-08-17T04:40:24.089Z,1010.89
2017-08-17T04:41:24.043Z,1010.9
2017-08-17T04:42:24.020Z,1010.88
2017-08-17T04:43:24.001Z,1010.84
2017-08-17T04:44:24.030Z,1010.82
2017-08-17T04:45:23.958Z,1010.78
2017-08-17T04:46:23.991Z,1010.8
2017-08-17T04:47:23.970Z,1010.77
2017-08-17T04:48:23.900Z,1010.74
2017-08-17T04:49:23.881Z,1010.73
2017-08-17T04:50:23.858Z,1010.73
2017-08-17T04:51:23.839Z,1010.71
2017-08-17T04:52:23.817Z,1010.61
2017-08-17T04:53:23.795Z,1010.62
2017-08-17T04:54:23.777Z,1010.61
2017-08-17T04:55:23.758Z,1010.62
2017-08-17T04:56:23.737Z,1010.63
2017-08-17T04:57:23.718Z,1010.65
2017-08-17T04:58:23.696Z,1010.64
2017-08-17T04:59:23.725Z,1010.68
2017-08-17T05:00:23.656Z,1010.6
2017-08-17T05:01:23.638Z,1010.6
2017-08-17T05:02:23.610Z,1010.57
2017-08-17T05:03:23.596Z,1010.56
2017-08-17T05:04:23.577Z,1010.5
2017-08-17T05:05:23.556Z,1010.5
2017-08-17T05:06:23.536Z,1010.5
2017-08-17T05:07:23.517Z,1010.46
2017-08-17T05:08:23.500Z,1010.5
2017-08-17T05:09:23.478Z,1010.46
2017-08-17T05:10:23.456Z,1010.46
2017-08-17T05:11:23.439Z,1010.55
2017-08-17T05:12:23.419Z,1010.47
2017-08-17T05:13:23.698Z,1010.53
2017-08-17T05:14:23.384Z,1010.47
2017-08-17T05:15:23.362Z,1010.49
2017-08-17T05:16:23.348Z,1010.43
2017-08-17T05:17:23.326Z,1010.46
2017-08-17T05:18:23.302Z,1010.49
2017-08-17T05:19:23.283Z,1010.52
2017-08-17T05:20:23.262Z,1010.49
2017-08-17T05:21:23.246Z,1010.5
2017-08-17T05:22:23.225Z,1010.46
2017-08-17T05:23:23.205Z,1010.43
2017-08-17T05:24:23.189Z,1010.4
2017-08-17T05:25:23.168Z,1010.4
2017-08-17T05:26:23.149Z,1010.43
2017-08-17T05:27:23.133Z,1010.46
2017-08-17T05:28:23.118Z,1010.49
2017-08-17T05:29:23.093Z,1010.5
2017-08-17T05:30:23.074Z,1010.49
2017-08-17T05:31:23.055Z,1010.5
2017-08-17T05:32:23.045Z,1010.49
2017-08-17T05:33:23.028Z,1010.46
2017-08-17T05:34:23.001Z,1010.48
2017-08-17T05:35:22.981Z,1010.48
2017-08-17T05:36:22.965Z,1010.44
2017-08-17T05:37:22.947Z,1010.49
2017-08-17T05:38:22.928Z,1010.48
2017-08-17T05:39:22.914Z,1010.47
2017-08-17T05:40:22.893Z,1010.5
2017-08-17T05:41:22.874Z,1010.55
2017-08-17T05:42:22.855Z,1010.6
2017-08-17T05:43:22.840Z,1010.51
2017-08-17T05:44:22.820Z,1010.52
2017-08-17T05:45:22.803Z,1010.54
2017-08-17T05:46:22.786Z,1010.5
2017-08-17T05:47:22.767Z,1010.52
2017-08-17T05:48:22.750Z,1010.53
2017-08-17T05:49:22.745Z,1010.51
2017-08-17T05:50:22.714Z,1010.51
2017-08-17T05:51:22.695Z,1010.55
2017-08-17T05:52:22.687Z,1010.53
2017-08-17T05:53:22.661Z,1010.47
2017-08-17T05:54:22.647Z,1010.48
2017-08-17T05:55:22.627Z,1010.48
2017-08-17T05:56:22.610Z,1010.5
2017-08-17T05:57:22.597Z,1010.44
2017-08-17T05:58:22.573Z,1010.48
2017-08-17T05:59:22.567Z,1010.41
2017-08-17T06:00:22.538Z,1010.41
2017-08-17T06:01:22.524Z,1010.42
2017-08-17T06:02:22.505Z,1010.42
2017-08-17T06:03:22.488Z,1010.49
2017-08-17T06:04:22.474Z,1010.44
2017-08-17T06:05:22.456Z,1010.46
2017-08-17T06:06:22.438Z,1010.45
2017-08-17T06:07:22.422Z,1010.42
2017-08-17T06:08:22.405Z,1010.41
2017-08-17T06:09:22.386Z,1010.43
2017-08-17T06:10:22.371Z,1010.43
2017-08-17T06:11:22.358Z,1010.43
2017-08-17T06:12:22.338Z,1010.44
2017-08-17T06:13:22.323Z,1010.42
2017-08-17T06:14:22.306Z,1010.39
2017-08-17T06:15:22.289Z,1010.35
2017-08-17T06:16:22.274Z,1010.38
2017-08-17T06:17:22.260Z,1010.36
2017-08-17T06:18:22.245Z,1010.34
2017-08-17T06:19:22.226Z,1010.32
2017-08-17T06:20:22.211Z,1010.31
2017-08-17T06:21:22.195Z,1010.36
2017-08-17T06:22:22.182Z,1010.31
2017-08-17T06:23:22.165Z,1010.33
2017-08-17T06:24:22.149Z,1010.29
2017-08-17T06:25:22.133Z,1010.27
2017-08-17T06:26:22.116Z,1010.21
2017-08-17T06:27:22.099Z,1010.21
2017-08-17T06:28:22.085Z,1010.22
2017-08-17T06:29:22.068Z,1010.17
2017-08-17T06:30:22.049Z,1010.17
2017-08-17T06:31:22.033Z,1010.19
2017-08-17T06:32:22.019Z,1010.14
2017-08-17T06:33:22.004Z,1010.14
2017-08-17T06:34:21.984Z,1010.16
2017-08-17T06:35:21.967Z,1010.14
2017-08-17T06:36:21.951Z,1010.17
2017-08-17T06:37:21.939Z,1010.09
2017-08-17T06:38:21.920Z,1010.12
2017-08-17T06:39:21.903Z,1010.1
2017-08-17T06:40:21.885Z,1010.19
2017-08-17T06:41:21.865Z,1010.14
2017-08-17T06:42:21.910Z,1010.16
2017-08-17T06:43:21.834Z,1010.15
2017-08-17T06:44:21.814Z,1010.19
2017-08-17T06:45:21.796Z,1010.19
2017-08-17T06:46:21.775Z,1010.2
2017-08-17T06:47:21.764Z,1010.21
2017-08-17T06:48:21.747Z,1010.25
2017-08-17T06:49:21.727Z,1010.22
2017-08-17T06:50:21.712Z,1010.23
2017-08-17T06:51:21.693Z,1010.26
2017-08-17T06:52:21.674Z,1010.28
2017-08-17T06:53:21.657Z,1010.3
2017-08-17T06:54:21.640Z,1010.33
2017-08-17T06:55:21.626Z,1010.34
2017-08-17T06:56:21.611Z,1010.32
2017-08-17T06:57:21.588Z,1010.28
2017-08-17T06:58:21.571Z,1010.31
2017-08-17T06:59:21.552Z,1010.3
2017-08-17T07:00:21.540Z,1010.27
2017-08-17T07:01:21.521Z,1010.28
2017-08-17T07:02:21.502Z,1010.24
2017-08-17T07:03:21.489Z,1010.27
2017-08-17T07:04:21.467Z,1010.22
2017-08-17T07:05:21.453Z,1010.2
2017-08-17T07:06:21.433Z,1010.19
2017-08-17T07:07:21.419Z,1010.2
2017-08-17T07:08:21.409Z,1010.19
2017-08-17T07:09:21.388Z,1010.2
2017-08-17T07:10:21.376Z,1010.2
2017-08-17T07:11:21.351Z,1010.2
2017-08-17T07:12:21.336Z,1010.25
2017-08-17T07:13:21.319Z,1010.32
2017-08-17T07:14:21.306Z,1010.32
2017-08-17T07:15:21.288Z,1010.36
2017-08-17T07:16:21.272Z,1010.34
2017-08-17T07:17:21.259Z,1010.34
2017-08-17T07:18:21.243Z,1010.3
2017-08-17T07:19:21.229Z,1010.33
2017-08-17T07:20:21.213Z,1010.38
2017-08-17T07:21:21.194Z,1010.39
2017-08-17T07:22:21.180Z,1010.39
2017-08-17T07:23:21.165Z,1010.36
2017-08-17T07:24:21.150Z,1010.42
2017-08-17T07:25:21.134Z,1010.4
2017-08-17T07:26:21.119Z,1010.38
2017-08-17T07:27:21.106Z,1010.37
2017-08-17T07:28:21.087Z,1010.37
2017-08-17T07:29:21.074Z,1010.39
2017-08-17T07:30:21.082Z,1010.37
2017-08-17T07:31:21.048Z,1010.37
2017-08-17T07:32:21.036Z,1010.4
2017-08-17T07:33:21.024Z,1010.39
2017-08-17T07:34:21.059Z,1010.41
2017-08-17T07:35:20.991Z,1010.39
2017-08-17T07:36:20.979Z,1010.35
2017-08-17T07:37:20.963Z,1010.34
2017-08-17T07:38:20.952Z,1010.27
2017-08-17T07:39:20.939Z,1010.28
2017-08-17T07:40:20.924Z,1010.27
2017-08-17T07:41:20.913Z,1010.28
2017-08-17T07:42:20.900Z,1010.26
2017-08-17T07:43:20.881Z,1010.28
2017-08-17T07:44:20.870Z,1010.24
2017-08-17T07:45:20.854Z,1010.25
2017-08-17T07:46:20.841Z,1010.29
2017-08-17T07:47:20.827Z,1010.3
2017-08-17T07:48:20.810Z,1010.27
2017-08-17T07:49:20.854Z,1010.28
2017-08-17T07:50:20.783Z,1010.29
2017-08-17T07:51:20.772Z,1010.28
2017-08-17T07:52:20.755Z,1010.35
2017-08-17T07:53:20.747Z,1010.29
2017-08-17T07:54:20.732Z,1010.24
2017-08-17T07:55:20.716Z,1010.2
2017-08-17T07:56:20.707Z,1010.2
2017-08-17T07:57:20.695Z,1010.12
2017-08-17T07:58:20.682Z,1010.11
2017-08-17T07:59:20.669Z,1010.12
2017-08-17T08:00:20.674Z,1010.1
2017-08-17T08:01:20.641Z,1010.08
2017-08-17T08:02:20.629Z,1010.09
2017-08-17T08:03:20.628Z,1009.99
2017-08-17T08:04:20.606Z,1010.02
2017-08-17T08:05:20.593Z,1010.02
2017-08-17T08:06:20.576Z,1010.05
2017-08-17T08:07:20.563Z,1010.02
2017-08-17T08:08:20.550Z,1009.99
2017-08-17T08:09:20.557Z,1010
2017-08-17T08:10:20.530Z,1009.97
2017-08-17T08:11:20.510Z,1009.96
2017-08-17T08:12:20.505Z,1009.99
2017-08-17T08:13:20.486Z,1010
2017-08-17T08:14:20.471Z,1009.98
2017-08-17T08:15:20.463Z,1009.99
2017-08-17T08:16:20.446Z,1010.01
2017-08-17T08:17:20.431Z,1009.96
2017-08-17T08:18:20.419Z,1009.98
2017-08-17T08:19:20.404Z,1009.96
2017-08-17T08:20:20.393Z,1009.94
2017-08-17T08:21:20.374Z,1009.91
2017-08-17T08:22:20.358Z,1009.9
2017-08-17T08:23:20.344Z,1009.91
2017-08-17T08:24:20.330Z,1009.88
2017-08-17T08:25:20.315Z,1009.89
2017-08-17T08:26:20.300Z,1009.89
2017-08-17T08:27:20.287Z,1009.87
2017-08-17T08:28:20.273Z,1009.95
2017-08-17T08:29:20.257Z,1009.9
2017-08-17T08:30:20.291Z,1009.9
2017-08-17T08:31:20.230Z,1009.85
2017-08-17T08:32:20.218Z,1009.85
2017-08-17T08:33:20.299Z,1009.85
2017-08-17T08:34:20.182Z,1009.86
2017-08-17T08:35:20.171Z,1009.84
2017-08-17T08:36:20.152Z,1009.85
2017-08-17T08:37:20.139Z,1009.81
2017-08-17T08:38:20.123Z,1009.84
2017-08-17T08:39:20.110Z,1009.83
2017-08-17T08:40:20.095Z,1009.83
2017-08-17T08:41:20.230Z,1009.86
2017-08-17T08:42:20.068Z,1009.86
2017-08-17T08:43:20.454Z,1009.88
2017-08-17T08:44:20.040Z,1009.88
2017-08-17T08:45:20.027Z,1009.82
2017-08-17T08:46:20.059Z,1009.82
2017-08-17T08:47:20.094Z,1009.8
2017-08-17T08:48:20.177Z,1009.77
2017-08-17T08:49:20.114Z,1009.81
2017-08-17T08:50:20.051Z,1009.8
2017-08-17T08:51:20.085Z,1009.83
2017-08-17T08:52:20.021Z,1009.8
2017-08-17T08:53:20.005Z,1009.81
2017-08-17T08:54:19.989Z,1009.77
2017-08-17T08:55:19.980Z,1009.81
2017-08-17T08:56:19.861Z,1009.76
2017-08-17T08:57:19.855Z,1009.81
2017-08-17T08:58:19.828Z,1009.82
2017-08-17T08:59:19.816Z,1009.83
2017-08-17T09:00:19.799Z,1009.84
2017-08-17T09:01:19.832Z,1009.77
2017-08-17T09:02:19.766Z,1009.79
2017-08-17T09:03:19.755Z,1009.79
2017-08-17T09:04:19.738Z,1009.74
2017-08-17T09:05:19.719Z,1009.72
2017-08-17T09:06:19.709Z,1009.7
2017-08-17T09:07:19.692Z,1009.7
2017-08-17T09:08:19.672Z,1009.74
2017-08-17T09:09:19.657Z,1009.7
2017-08-17T09:10:19.640Z,1009.77
2017-08-17T09:11:19.636Z,1009.74
2017-08-17T09:12:19.610Z,1009.74
2017-08-17T09:13:19.598Z,1009.69
2017-08-17T09:14:19.584Z,1009.68
2017-08-17T09:15:19.566Z,1009.69
2017-08-17T09:16:19.547Z,1009.69
2017-08-17T09:17:19.528Z,1009.68
2017-08-17T09:18:19.512Z,1009.65
2017-08-17T09:19:19.522Z,1009.65
2017-08-17T09:20:19.480Z,1009.6
2017-08-17T09:21:19.466Z,1009.56
2017-08-17T09:22:19.448Z,1009.56
2017-08-17T09:23:19.430Z,1009.55
2017-08-17T09:24:19.415Z,1009.55
2017-08-17T09:25:19.397Z,1009.54
2017-08-17T09:26:19.382Z,1009.53
2017-08-17T09:27:19.367Z,1009.55
2017-08-17T09:28:19.354Z,1009.56
2017-08-17T09:29:19.335Z,1009.56
2017-08-17T09:30:19.320Z,1009.59
2017-08-17T09:31:19.303Z,1009.62
2017-08-17T09:32:19.289Z,1009.6
2017-08-17T09:33:19.280Z,1009.55
2017-08-17T09:34:19.254Z,1009.52
2017-08-17T09:35:19.240Z,1009.56
2017-08-17T09:36:19.224Z,1009.52
2017-08-17T09:37:19.212Z,1009.5
2017-08-17T09:38:19.192Z,1009.48
2017-08-17T09:39:19.177Z,1009.53
2017-08-17T09:40:19.164Z,1009.55
2017-08-17T09:41:19.143Z,1009.45
2017-08-17T09:42:19.130Z,1009.51
2017-08-17T09:43:19.115Z,1009.51
2017-08-17T09:44:19.110Z,1009.48
2017-08-17T09:45:19.080Z,1009.5
2017-08-17T09:46:19.068Z,1009.53
2017-08-17T09:47:19.052Z,1009.45
2017-08-17T09:48:19.089Z,1009.45
2017-08-17T09:49:19.025Z,1009.4
2017-08-17T09:50:19.009Z,1009.37
2017-08-17T09:51:18.992Z,1009.41
2017-08-17T09:52:18.975Z,1009.3
2017-08-17T09:53:18.959Z,1009.34
2017-08-17T09:54:18.941Z,1009.28
2017-08-17T09:55:18.931Z,1009.4
2017-08-17T09:56:18.911Z,1009.34
2017-08-17T09:57:18.904Z,1009.36
2017-08-17T09:58:18.886Z,1009.35
2017-08-17T09:59:18.866Z,1009.35
2017-08-17T10:00:18.900Z,1009.28
2017-08-17T10:01:18.833Z,1009.31
2017-08-17T10:02:18.821Z,1009.3
2017-08-17T10:03:18.850Z,1009.35
2017-08-17T10:04:18.836Z,1009.36
2017-08-17T10:05:18.769Z,1009.39
2017-08-17T10:06:18.754Z,1009.34
2017-08-17T10:07:18.735Z,1009.25
2017-08-17T10:08:18.722Z,1009.31
2017-08-17T10:09:18.712Z,1009.29
2017-08-17T10:10:18.691Z,1009.27
2017-08-17T10:11:18.675Z,1009.25
2017-08-17T10:12:18.674Z,1009.26
2017-08-17T10:13:18.645Z,1009.22
2017-08-17T10:14:18.630Z,1009.21
2017-08-17T10:15:18.611Z,1009.17
2017-08-17T10:16:18.593Z,1009.16
2017-08-17T10:17:18.581Z,1009.15
2017-08-17T10:18:18.563Z,1009.15
2017-08-17T10:19:18.549Z,1009.06
2017-08-17T10:20:18.532Z,1009.1
2017-08-17T10:21:18.518Z,1009.07
2017-08-17T10:22:18.502Z,1009.06
2017-08-17T10:23:18.485Z,1009.06
2017-08-17T10:24:18.468Z,1009.06
2017-08-17T10:25:18.456Z,1009.08
2017-08-17T10:26:18.442Z,1009.07
2017-08-17T10:27:18.424Z,1009.05
2017-08-17T10:28:18.409Z,1009.06
2017-08-17T10:29:18.394Z,1009.02
2017-08-17T10:30:18.377Z,1008.99
2017-08-17T10:31:18.361Z,1009
2017-08-17T10:32:18.345Z,1008.97
2017-08-17T10:33:18.329Z,1008.9
2017-08-17T10:34:18.318Z,1008.88
2017-08-17T10:35:18.297Z,1008.85
2017-08-17T10:36:18.283Z,1008.8
2017-08-17T10:37:18.267Z,1008.83
2017-08-17T10:38:18.252Z,1008.79
2017-08-17T10:39:18.234Z,1008.84
2017-08-17T10:40:18.221Z,1008.87
2017-08-17T10:41:18.208Z,1008.78
2017-08-17T10:42:18.186Z,1008.78
2017-08-17T10:43:18.171Z,1008.82
2017-08-17T10:44:18.154Z,1008.8
2017-08-17T10:45:18.136Z,1008.81
2017-08-17T10:46:18.123Z,1008.86
2017-08-17T10:47:18.110Z,1008.82
2017-08-17T10:48:18.094Z,1008.85
2017-08-17T10:49:18.075Z,1008.87
2017-08-17T10:50:18.060Z,1008.84
2017-08-17T10:51:18.043Z,1008.89
2017-08-17T10:52:18.032Z,1008.88
2017-08-17T10:53:18.009Z,1008.9
2017-08-17T10:54:17.994Z,1008.9
2017-08-17T10:55:17.980Z,1008.95
2017-08-17T10:56:17.961Z,1008.92
2017-08-17T10:57:17.944Z,1008.92
2017-08-17T10:58:17.979Z,1008.92
2017-08-17T10:59:17.915Z,1008.92
2017-08-17T11:00:17.898Z,1008.95
2017-08-17T11:01:17.886Z,1008.91
2017-08-17T11:02:17.914Z,1008.89
2017-08-17T11:03:17.856Z,1008.91
2017-08-17T11:04:17.831Z,1008.86
2017-08-17T11:05:17.817Z,1008.84
2017-08-17T11:06:17.799Z,1008.76
2017-08-17T11:07:17.782Z,1008.86
2017-08-17T11:08:17.771Z,1008.84
2017-08-17T11:09:17.751Z,1008.81
2017-08-17T11:10:17.741Z,1008.84
2017-08-17T11:11:17.725Z,1008.81
2017-08-17T11:12:17.701Z,1008.89
2017-08-17T11:13:17.686Z,1008.86
2017-08-17T11:14:17.676Z,1008.77
2017-08-17T11:15:17.654Z,1008.78
2017-08-17T11:16:17.637Z,1008.81
2017-08-17T11:17:17.622Z,1008.8
2017-08-17T11:18:17.606Z,1008.79
2017-08-17T11:19:17.586Z,1008.81
2017-08-17T11:20:17.575Z,1008.74
2017-08-17T11:21:17.557Z,1008.69
2017-08-17T11:22:17.540Z,1008.74
2017-08-17T11:23:17.524Z,1008.69
2017-08-17T11:24:17.509Z,1008.73
2017-08-17T11:25:17.493Z,1008.72
2017-08-17T11:26:17.475Z,1008.74
2017-08-17T11:27:17.462Z,1008.72
2017-08-17T11:28:17.444Z,1008.83
2017-08-17T11:29:17.431Z,1008.83
2017-08-17T11:30:17.411Z,1008.87
2017-08-17T11:31:17.406Z,1008.87
2017-08-17T11:32:17.382Z,1008.91
2017-08-17T11:33:17.365Z,1008.86
2017-08-17T11:34:17.355Z,1008.79
2017-08-17T11:35:17.333Z,1008.75
2017-08-17T11:36:17.316Z,1008.75
2017-08-17T11:37:17.305Z,1008.81
2017-08-17T11:38:17.336Z,1008.82
2017-08-17T11:39:17.267Z,1008.77
2017-08-17T11:40:17.251Z,1008.79
2017-08-17T11:41:17.236Z,1008.76
2017-08-17T11:42:17.226Z,1008.79
2017-08-17T11:43:17.207Z,1008.71
2017-08-17T11:44:17.191Z,1008.75
2017-08-17T11:45:17.174Z,1008.69
2017-08-17T11:46:17.460Z,1008.69
2017-08-17T11:47:17.145Z,1008.68
2017-08-17T11:48:17.127Z,1008.66
2017-08-17T11:49:17.114Z,1008.64
2017-08-17T11:50:17.105Z,1008.61
2017-08-17T11:51:17.082Z,1008.65
2017-08-17T11:52:17.068Z,1008.59
2017-08-17T11:53:17.053Z,1008.58
2017-08-17T11:54:17.038Z,1008.58
2017-08-17T11:55:17.024Z,1008.63
2017-08-17T11:56:17.006Z,1008.62
2017-08-17T11:57:17.012Z,1008.55
2017-08-17T11:58:16.979Z,1008.61
2017-08-17T11:59:16.962Z,1008.62
2017-08-17T12:00:16.945Z,1008.64
2017-08-17T12:01:16.934Z,1008.65
2017-08-17T12:02:16.919Z,1008.68
2017-08-17T12:03:16.911Z,1008.67
2017-08-17T12:04:16.893Z,1008.62
2017-08-17T12:05:16.877Z,1008.6
2017-08-17T12:06:16.865Z,1008.56
2017-08-17T12:07:16.847Z,1008.52
2017-08-17T12:08:16.834Z,1008.53